Metar Report
Metar
METAR KTYQ 172356Z AUTO 36004KT 10SM SCT050 SCT065 23/18 A3004 A02 163
METAR KTYQ 172256Z AUTO 36005KT 10SM SCT060 SCT070 26/17 A3004 A02 162
METAR KTYQ 172156Z AUTO 35011G16KT 10SM SCT060 BKN070 28/16 A3004 A02 161
METAR KTYQ 172056Z AUTO 33010G15KT 10SM SCT060 SCT120 27/16 A3004 A02 160
METAR KTYQ 171956Z AUTO 33006KT 10SM SCT060 27/17 A3005 A02 159
METAR KTYQ 171856Z AUTO 35011KT 10SM CLR 27/17 A3006 A02 158
METAR KTYQ 171756Z AUTO 01007KT 10SM CLR 27/17 A3006 A02 157
METAR KTYQ 171656Z AUTO 35008KT 10SM CLR 27/17 A3007 A02 156
METAR KTYQ 171556Z AUTO 04006KT 10SM CLR 26/18 A3007 A02 155
METAR KTYQ 171456Z AUTO 01006KT 10SM CLR 24/19 A3007 A02 154
METAR KTYQ 171356Z AUTO 01005KT 10SM CLR 23/18 A3007 A02 153
METAR KTYQ 171256Z AUTO 36005KT 10SM CLR 22/19 A3006 A02 152
METAR KTYQ 171156Z AUTO 34005KT 10SM CLR 19/18 A3004 A02 151
METAR KTYQ 171056Z AUTO 35003KT 10SM SCT049 18/18 A3002 A02 150
METAR KTYQ 170956Z AUTO 35003KT 10SM CLR 18/18 A3000 A02 149
METAR KTYQ 170856Z AUTO 35005KT 10SM CLR 19/19 A2999 A02 148
METAR KTYQ 170756Z AUTO 36005KT 7SM CLR 21/21 A2999 A02 147
METAR KTYQ 170656Z AUTO 36006KT 7SM SCT037 21/21 A2998 A02 146
METAR KTYQ 170556Z AUTO 33004KT 10SM CLR 22/22 A2998 A02 145
METAR KTYQ 170456Z AUTO 00000KT 10SM SCT033 22/22 A2998 A02 144
METAR KTYQ 170356Z AUTO 00000KT 10SM SCT029 22/22 A2996 A02 143
METAR KTYQ 170256Z AUTO 00000KT 10SM CLR 22/22 A2996 A02 142
METAR KTYQ 170156Z AUTO 00000KT 10SM CLR 23/23 A2995 A02 141
METAR KTYQ 170056Z AUTO 00000KT 10SM SCT120 24/23 A2994 A02 140
METAR KTYQ 162356Z AUTO 00000KT 10SM CLR 26/23 A2992 A02 139
METAR KTYQ 162256Z AUTO 30008KT 10SM CLR 28/23 A2991 A02 138
METAR KTYQ 162156Z AUTO 29008G18KT 10SM CLR 28/23 A2992 A02 137
METAR KTYQ 162056Z AUTO 27008KT 10SM SCT034 SCT060 SCT070 29/24 A2991 A02 136
METAR KTYQ 161956Z AUTO 26005KT 7SM -RA SCT015 SCT036 BKN110 27/24 A2992 A02 P0010 135
METAR KTYQ 161856Z AUTO 28011G16KT 2 1/2SM +RA SCT015 SCT027 BKN046 24/23 A2995 A02 P0009 134
METAR KTYQ 161756Z AUTO 25007KT 10SM SCT024 SCT031 SCT039 29/24 A2995 A02 133
METAR KTYQ 161656Z AUTO 24006KT 10SM SCT024 SCT034 BKN050 28/23 A2998 A02 132
METAR KTYQ 161556Z AUTO 22005KT 7SM SCT013 BKN043 27/24 A2999 A02 131
METAR KTYQ 161456Z AUTO 23004KT 7SM BKN010 BKN022 BKN095 26/24 A3000 A02 130
METAR KTYQ 161356Z AUTO 25007KT 4SM BR OVC006 24/23 A2999 A02 129
METAR KTYQ 161256Z AUTO 22004KT 4SM BR SCT006 OVC075 23/23 A2999 A02 128
METAR KTYQ 161156Z AUTO 20004KT 4SM BR OVC075 22/22 A2999 A02 127
METAR KTYQ 161056Z AUTO 17003KT 5SM BR SCT025 OVC085 21/21 A2999 A02 126
METAR KTYQ 160956Z AUTO 00000KT 7SM SCT075 OVC085 21/21 A2997 A02 125
METAR KTYQ 160856Z AUTO 00000KT 10SM OVC085 21/21 A2998 A02 124
METAR KTYQ 160756Z AUTO 00000KT 10SM SCT060 SCT080 21/21 A2998 A02 123
METAR KTYQ 160656Z AUTO 00000KT 10SM SCT050 SCT080 21/21 A2999 A02 122
METAR KTYQ 160556Z AUTO 22003KT 10SM SCT080 21/21 A3000 A02 121
METAR KTYQ 160456Z AUTO 21003KT 10SM OVC043 22/21 A3002 A02 120
METAR KTYQ 160356Z AUTO 00000KT 10SM CLR 22/21 A3000 A02 119
METAR KTYQ 160256Z AUTO 00000KT 10SM CLR 23/22 A3000 A02 118
METAR KTYQ 160156Z AUTO 21005KT 10SM BKN050 25/22 A2999 A02 117
METAR KTYQ 160056Z AUTO 21004KT 10SM BKN050 BKN085 26/23 A2997 A02 116
METAR KTYQ 152356Z AUTO 26006KT 10SM CLR 27/21 A2997 A02 115
METAR KTYQ 152256Z AUTO 22007KT 10SM SCT031 BKN046 OVC065 29/23 A2997 A02 114
METAR KTYQ 152156Z AUTO 23010KT 10SM SCT032 SCT065 29/22 A2998 A02 113
METAR KTYQ 152056Z AUTO 23013KT 10SM VCTS CLR 29/21 A2999 A02 112
METAR KTYQ 151956Z AUTO 24009KT 10SM CLR 30/23 A2999 A02 111
METAR KTYQ 151856Z AUTO 24006KT 10SM SCT038 SCT047 30/22 A3000 A02 110
METAR KTYQ 151756Z AUTO 19005KT 10SM SCT034 SCT043 SCT070 28/21 A3003 A02 109
METAR KTYQ 151656Z AUTO 23005KT 10SM CLR 28/22 A3002 A02 108
METAR KTYQ 151556Z AUTO 24004KT 10SM CLR 28/23 A3002 A02 107
METAR KTYQ 151456Z AUTO 25003KT 10SM CLR 26/23 A3003 A02 106
METAR KTYQ 151356Z AUTO 00000KT 10SM CLR 24/22 A3004 A02 105
METAR KTYQ 151256Z AUTO 24003KT 7SM SCT034 SCT120 23/23 A3006 A02 104
METAR KTYQ 151156Z AUTO 00000KT 5SM BR OVC110 22/22 A3006 A02 103
METAR KTYQ 151056Z AUTO 00000KT 4SM BR BKN110 21/21 A3004 A02 102
METAR KTYQ 150956Z AUTO 00000KT 7SM OVC110 21/21 A3004 A02 101
METAR KTYQ 150856Z AUTO 00000KT 7SM CLR 21/21 A3003 A02 100
METAR KTYQ 150756Z AUTO 00000KT 7SM -RA CLR 22/22 A3004 A02 99
METAR KTYQ 150656Z AUTO 00000KT 7SM CLR 21/21 A3002 A02 98
METAR KTYQ 150556Z AUTO 00000KT 7SM CLR 21/21 A3006 A02 97
METAR KTYQ 150456Z AUTO 00000KT 7SM CLR 21/21 A3006 A02 96
METAR KTYQ 150356Z AUTO 00000KT 7SM CLR 21/21 A3004 A02 95
METAR KTYQ 150256Z AUTO 00000KT 10SM CLR 22/22 A3005 A02 94
METAR KTYQ 150156Z AUTO 00000KT 10SM CLR 23/22 A3005 A02 93
METAR KTYQ 150056Z AUTO 00000KT 10SM CLR 26/22 A3005 A02 92
METAR KTYQ 142356Z AUTO 00000KT 10SM CLR 27/23 A3003 A02 91
METAR KTYQ 142256Z AUTO 07003KT 10SM CLR 28/21 A3000 A02 90
METAR KTYQ 142156Z AUTO 02006KT 10SM CLR 27/22 A3003 A02 89
METAR KTYQ 142056Z AUTO 33005KT 10SM CLR 29/20 A3006 A02 88
METAR KTYQ 141956Z AUTO 16003KT 10SM CLR 29/19 A3007 A02 87
METAR KTYQ 141856Z AUTO 00000KT 10SM CLR 29/19 A3010 A02 86
METAR KTYQ 141756Z AUTO 00000KT 10SM SCT039 29/19 A3012 A02 85
METAR KTYQ 141656Z AUTO 29006KT 10SM CLR 29/21 A3014 A02 84
METAR KTYQ 141556Z AUTO 29003KT 10SM CLR 28/19 A3014 A02 83
METAR KTYQ 141456Z AUTO 24003KT 10SM CLR 27/19 A3011 A02 82
METAR KTYQ 141356Z AUTO 21003KT 10SM CLR 26/20 A3012 A02 81
METAR KTYQ 141256Z AUTO 00000KT 10SM CLR 23/21 A3012 A02 80
METAR KTYQ 141156Z AUTO 00000KT 7SM CLR 19/19 A3011 A02 79
METAR KTYQ 141056Z AUTO 00000KT 7SM CLR 17/17 A3011 A02 78
METAR KTYQ 140956Z AUTO 00000KT 7SM CLR 17/17 A3008 A02 77
METAR KTYQ 140856Z AUTO 00000KT 7SM CLR 17/17 A3008 A02 76
METAR KTYQ 140756Z AUTO 00000KT 10SM CLR 18/18 A3008 A02 75
METAR KTYQ 140656Z AUTO 00000KT 10SM CLR 18/18 A3009 A02 74
METAR KTYQ 140556Z AUTO 00000KT 10SM CLR 18/18 A3010 A02 73
METAR KTYQ 140456Z AUTO 00000KT 5SM BR CLR 19/19 A3012 A02 72
METAR KTYQ 140356Z AUTO 00000KT 10SM CLR 20/19 A3012 A02 71
METAR KTYQ 140256Z AUTO 00000KT 10SM CLR 21/21 A3013 A02 70
METAR KTYQ 140156Z AUTO 00000KT 10SM CLR 23/21 A3012 A02 69
METAR KTYQ 140056Z AUTO 00000KT 10SM CLR 25/22 A3009 A02 68
METAR KTYQ 132356Z AUTO 00000KT 10SM CLR 28/22 A3009 A02 67
METAR KTYQ 132256Z AUTO 29003KT 10SM CLR 29/19 A3010 A02 66
METAR KTYQ 132156Z AUTO 01003KT 10SM CLR 29/19 A3011 A02 65
METAR KTYQ 132056Z AUTO 31003KT 10SM CLR 29/18 A3013 A02 64
METAR KTYQ 131956Z AUTO 00000KT 10SM CLR 29/17 A3014 A02 63
METAR KTYQ 131856Z AUTO 00000KT 10SM CLR 29/17 A3016 A02 62
METAR KTYQ 131756Z AUTO 22007KT 10SM CLR 28/17 A3016 A02 61
METAR KTYQ 131656Z AUTO 26004KT 10SM CLR 28/17 A3017 A02 60
METAR KTYQ 131556Z AUTO 18004KT 10SM CLR 27/16 A3017 A02 59
METAR KTYQ 131456Z AUTO 23005KT 10SM CLR 26/17 A3019 A02 58
METAR KTYQ 131356Z AUTO 18005KT 10SM CLR 24/17 A3019 A02 57
METAR KTYQ 131256Z AUTO 00000KT 10SM CLR 21/17 A3019 A02 56
METAR KTYQ 131156Z AUTO 00000KT 10SM CLR 18/17 A3019 A02 55
METAR KTYQ 131056Z AUTO 00000KT 5SM BR CLR 14/14 A3017 A02 54
METAR KTYQ 130956Z AUTO 00000KT 7SM CLR 14/14 A3016 A02 53
METAR KTYQ 130856Z AUTO 00000KT 7SM CLR 14/14 A3016 A02 52
METAR KTYQ 130756Z AUTO 00000KT 10SM CLR 14/14 A3018 A02 51
METAR KTYQ 130656Z AUTO 00000KT 10SM CLR 16/16 A3018 A02 50
METAR KTYQ 130556Z AUTO 00000KT 10SM CLR 17/16 A3019 A02 49
METAR KTYQ 130456Z AUTO 00000KT 10SM CLR 17/16 A3019 A02 48
METAR KTYQ 130356Z AUTO 00000KT 10SM CLR 18/17 A3017 A02 47
METAR KTYQ 130256Z AUTO 08003KT 10SM CLR 18/17 A3016 A02 46
METAR KTYQ 130156Z AUTO 00000KT 10SM CLR 19/18 A3015 A02 45
METAR KTYQ 130056Z AUTO 00000KT 10SM CLR 23/19 A3015 A02 44
METAR KTYQ 122356Z AUTO 10003KT 10SM CLR 26/17 A3015 A02 43